createdAt,value
2018-07-28T00:00:14.294Z,17.65
2018-07-28T00:01:22.353Z,17.60
2018-07-28T00:02:30.403Z,17.66
2018-07-28T00:03:38.796Z,17.56
2018-07-28T00:04:46.566Z,17.59
2018-07-28T00:05:54.627Z,17.66
2018-07-28T00:07:02.660Z,17.53
2018-07-28T00:08:10.746Z,17.54
2018-07-28T00:09:18.797Z,17.63
2018-07-28T00:10:26.878Z,17.65
2018-07-28T00:11:34.917Z,17.56
2018-07-28T00:12:43.020Z,17.57
2018-07-28T00:13:51.064Z,17.57
2018-07-28T00:14:59.191Z,17.52
2018-07-28T00:16:07.197Z,17.41
2018-07-28T00:17:15.288Z,17.47
2018-07-28T00:18:23.328Z,17.46
2018-07-28T00:19:31.416Z,17.52
2018-07-28T00:20:41.474Z,17.41
2018-07-28T00:21:59.004Z,17.49
2018-07-28T00:22:55.809Z,17.44
2018-07-28T00:24:03.871Z,17.46
2018-07-28T00:25:11.950Z,17.47
2018-07-28T00:26:20.028Z,17.38
2018-07-28T00:27:28.103Z,17.46
2018-07-28T00:28:36.160Z,17.39
2018-07-28T00:29:44.212Z,17.42
2018-07-28T00:30:52.268Z,17.39
2018-07-28T00:32:00.334Z,17.37
2018-07-28T00:33:08.606Z,17.31
2018-07-28T00:34:16.688Z,17.38
2018-07-28T00:35:24.732Z,17.31
2018-07-28T00:36:34.332Z,17.24
2018-07-28T00:37:40.873Z,17.24
2018-07-28T00:38:48.924Z,17.23
2018-07-28T00:39:57.282Z,17.24
2018-07-28T00:41:05.059Z,17.34
2018-07-28T00:42:13.147Z,17.34
2018-07-28T00:43:21.218Z,17.27
2018-07-28T00:44:29.291Z,17.30
2018-07-28T00:45:37.338Z,17.28
2018-07-28T00:46:45.426Z,17.30
2018-07-28T00:47:53.495Z,17.20
2018-07-28T00:49:01.536Z,17.23
2018-07-28T00:50:09.644Z,17.31
2018-07-28T00:51:17.685Z,17.34
2018-07-28T00:52:25.771Z,17.28
2018-07-28T00:53:33.801Z,17.30
2018-07-28T00:54:41.909Z,17.28
2018-07-28T00:55:49.954Z,17.34
2018-07-28T00:56:58.040Z,17.24
2018-07-28T00:58:06.201Z,17.19
2018-07-28T00:59:14.174Z,17.20
2018-07-28T01:00:22.218Z,17.24
2018-07-28T01:01:30.299Z,17.30
2018-07-28T01:02:38.367Z,17.28
2018-07-28T01:03:46.445Z,17.27
2018-07-28T01:04:54.486Z,17.14
2018-07-28T01:06:02.826Z,17.22
2018-07-28T01:07:10.614Z,17.17
2018-07-28T01:08:18.738Z,17.17
2018-07-28T01:09:26.774Z,17.09
2018-07-28T01:10:34.827Z,17.13
2018-07-28T01:11:42.926Z,17.13
2018-07-28T01:12:50.962Z,17.07
2018-07-28T01:14:00.598Z,17.07
2018-07-28T01:15:07.138Z,17.04
2018-07-28T01:16:15.184Z,17.01
2018-07-28T01:17:23.326Z,17.02
2018-07-28T01:18:31.307Z,16.95
2018-07-28T01:19:39.355Z,17.01
2018-07-28T01:20:47.432Z,16.97
2018-07-28T01:21:55.451Z,16.92
2018-07-28T01:23:03.582Z,16.87
2018-07-28T01:24:11.629Z,16.89
2018-07-28T01:25:19.698Z,16.92
2018-07-28T01:26:27.777Z,16.91
2018-07-28T01:27:36.194Z,16.95
2018-07-28T01:28:45.364Z,16.77
2018-07-28T01:29:52.067Z,16.86
2018-07-28T01:31:03.421Z,16.87
2018-07-28T01:32:08.125Z,16.77
2018-07-28T01:33:17.820Z,16.86
2018-07-28T01:34:24.224Z,16.77
2018-07-28T01:35:32.341Z,16.83
2018-07-28T01:36:40.375Z,16.86
2018-07-28T01:37:48.470Z,16.76
2018-07-28T01:38:56.559Z,16.77
2018-07-28T01:40:05.593Z,16.84
2018-07-28T01:41:12.647Z,16.79
2018-07-28T01:42:20.712Z,16.77
2018-07-28T01:43:28.764Z,16.77
2018-07-28T01:44:36.836Z,16.79
2018-07-28T01:45:44.913Z,16.82
2018-07-28T01:46:52.963Z,16.77
2018-07-28T01:48:01.048Z,16.82
2018-07-28T01:49:09.132Z,16.72
2018-07-28T01:50:20.717Z,16.76
2018-07-28T01:51:25.233Z,16.68
2018-07-28T01:52:33.309Z,16.74
2018-07-28T01:53:41.404Z,16.72
2018-07-28T01:54:49.474Z,16.74
2018-07-28T01:55:57.516Z,16.72
2018-07-28T01:57:07.480Z,16.72
2018-07-28T01:58:13.657Z,16.72
2018-07-28T01:59:21.778Z,16.59
2018-07-28T02:00:29.877Z,16.62
2018-07-28T02:01:38.091Z,16.62
2018-07-28T02:02:46.128Z,16.66
2018-07-28T02:03:55.440Z,16.66
2018-07-28T02:05:02.477Z,16.59
2018-07-28T02:06:10.763Z,16.68
2018-07-28T02:07:18.802Z,16.69
2018-07-28T02:08:27.077Z,16.69
2018-07-28T02:09:35.139Z,16.64
2018-07-28T02:10:43.198Z,16.51
2018-07-28T02:11:51.284Z,16.61
2018-07-28T02:12:59.341Z,16.54
2018-07-28T02:14:07.417Z,16.49
2018-07-28T02:15:15.464Z,16.47
2018-07-28T02:16:23.536Z,16.49
2018-07-28T02:17:31.659Z,16.47
2018-07-28T02:18:39.685Z,16.39
2018-07-28T02:19:48.014Z,16.34
2018-07-28T02:20:55.785Z,16.37
2018-07-28T02:22:03.884Z,16.44
2018-07-28T02:23:11.942Z,16.36
2018-07-28T02:24:20.290Z,16.31
2018-07-28T02:25:28.110Z,16.44
2018-07-28T02:26:36.143Z,16.36
2018-07-28T02:27:45.799Z,16.37
2018-07-28T02:28:52.396Z,16.36
2018-07-28T02:30:03.741Z,16.28
2018-07-28T02:31:08.409Z,16.31
2018-07-28T02:32:16.501Z,16.34
2018-07-28T02:33:24.554Z,16.29
2018-07-28T02:34:32.646Z,16.28
2018-07-28T02:35:40.685Z,16.16
2018-07-28T02:36:48.766Z,16.24
2018-07-28T02:37:56.816Z,16.21
2018-07-28T02:39:05.174Z,16.24
2018-07-28T02:40:12.965Z,16.22
2018-07-28T02:41:21.246Z,16.25
2018-07-28T02:42:29.698Z,16.16
2018-07-28T02:43:37.366Z,16.16
2018-07-28T02:44:45.425Z,16.06
2018-07-28T02:45:53.577Z,16.05
2018-07-28T02:47:01.566Z,16.02
2018-07-28T02:48:09.642Z,16.00
2018-07-28T02:49:21.109Z,16.08
2018-07-28T02:50:25.742Z,16.08
2018-07-28T02:51:34.071Z,16.05
2018-07-28T02:52:42.488Z,16.13
2018-07-28T02:53:50.209Z,16.02
2018-07-28T02:54:58.265Z,16.03
2018-07-28T02:56:06.330Z,16.13
2018-07-28T02:57:14.397Z,16.08
2018-07-28T02:58:22.457Z,16.02
2018-07-28T02:59:30.513Z,15.96
2018-07-28T03:00:38.625Z,15.99
2018-07-28T03:01:46.652Z,15.91
2018-07-28T03:02:54.961Z,15.87
2018-07-28T03:04:02.811Z,15.94
2018-07-28T03:05:10.887Z,15.85
2018-07-28T03:06:18.954Z,15.87
2018-07-28T03:07:26.981Z,15.83
2018-07-28T03:08:35.168Z,15.84
2018-07-28T03:09:43.133Z,15.84
2018-07-28T03:10:51.275Z,15.83
2018-07-28T03:11:59.243Z,15.88
2018-07-28T03:13:07.324Z,15.85
2018-07-28T03:14:15.360Z,15.83
2018-07-28T03:15:23.474Z,15.78
2018-07-28T03:16:31.538Z,15.80
2018-07-28T03:17:39.580Z,15.76
2018-07-28T03:18:47.642Z,15.76
2018-07-28T03:19:55.726Z,15.72
2018-07-28T03:21:03.787Z,15.76
2018-07-28T03:22:11.868Z,15.70
2018-07-28T03:23:19.956Z,15.73
2018-07-28T03:24:29.183Z,15.78
2018-07-28T03:25:37.247Z,15.70
2018-07-28T03:26:45.322Z,15.73
2018-07-28T03:27:53.392Z,15.73
2018-07-28T03:29:01.640Z,15.75
2018-07-28T03:30:09.912Z,15.76
2018-07-28T03:31:17.800Z,15.75
2018-07-28T03:32:27.242Z,15.67
2018-07-28T03:33:33.941Z,15.65
2018-07-28T03:34:46.459Z,15.70
2018-07-28T03:35:51.303Z,15.62
2018-07-28T03:36:58.145Z,15.65
2018-07-28T03:38:06.167Z,15.66
2018-07-28T03:39:14.636Z,15.66
2018-07-28T03:40:22.350Z,15.65
2018-07-28T03:41:30.407Z,15.63
2018-07-28T03:42:38.452Z,15.57
2018-07-28T03:43:46.548Z,15.63
2018-07-28T03:44:54.592Z,15.59
2018-07-28T03:46:03.036Z,15.62
2018-07-28T03:47:10.710Z,15.66
2018-07-28T03:48:19.048Z,15.66
2018-07-28T03:49:26.854Z,15.62
2018-07-28T03:50:34.908Z,15.60
2018-07-28T03:51:42.991Z,15.57
2018-07-28T03:52:53.131Z,15.67
2018-07-28T03:53:59.319Z,15.66
2018-07-28T03:55:07.428Z,15.70
2018-07-28T03:56:18.964Z,15.80
2018-07-28T03:57:23.519Z,15.72
2018-07-28T03:58:31.697Z,15.72
2018-07-28T03:59:39.654Z,15.81
2018-07-28T04:00:47.736Z,15.80
2018-07-28T04:01:55.768Z,15.81
2018-07-28T04:03:03.869Z,15.84
2018-07-28T04:04:11.927Z,15.88
2018-07-28T04:05:20.025Z,15.85
2018-07-28T04:06:28.065Z,15.87
2018-07-28T04:07:36.144Z,15.88
2018-07-28T04:08:44.241Z,15.90
2018-07-28T04:09:52.277Z,15.84
2018-07-28T04:11:00.350Z,15.92
2018-07-28T04:12:08.399Z,15.87
2018-07-28T04:13:16.474Z,15.98
2018-07-28T04:14:24.544Z,16.05
2018-07-28T04:15:32.618Z,16.05
2018-07-28T04:16:40.662Z,16.08
2018-07-28T04:17:48.740Z,16.17
2018-07-28T04:18:56.788Z,16.16
2018-07-28T04:20:04.870Z,16.22
2018-07-28T04:21:13.287Z,16.32
2018-07-28T04:22:24.384Z,16.34
2018-07-28T04:23:29.081Z,16.39
2018-07-28T04:24:40.545Z,16.41
2018-07-28T04:25:45.203Z,16.47
2018-07-28T04:26:53.271Z,16.41
2018-07-28T04:28:01.534Z,16.41
2018-07-28T04:29:09.641Z,16.62
2018-07-28T04:30:17.661Z,16.57
2018-07-28T04:31:25.762Z,16.59
2018-07-28T04:32:33.796Z,16.47
2018-07-28T04:33:41.891Z,16.61
2018-07-28T04:34:49.945Z,16.66
2018-07-28T04:35:58.002Z,16.66
2018-07-28T04:37:06.349Z,16.74
2018-07-28T04:38:14.365Z,16.62
2018-07-28T04:39:22.609Z,16.62
2018-07-28T04:40:30.665Z,16.72
2018-07-28T04:41:38.741Z,16.69
2018-07-28T04:42:47.247Z,16.68
2018-07-28T04:43:54.939Z,16.74
2018-07-28T04:45:04.848Z,16.83
2018-07-28T04:46:11.227Z,16.83
2018-07-28T04:47:19.097Z,16.82
2018-07-28T04:48:28.734Z,16.86
2018-07-28T04:49:35.210Z,16.89
2018-07-28T04:50:43.544Z,16.98
2018-07-28T04:51:53.218Z,16.98
2018-07-28T04:53:02.036Z,17.05
2018-07-28T04:54:07.705Z,17.17
2018-07-28T04:55:19.325Z,17.17
2018-07-28T04:56:24.048Z,17.17
2018-07-28T04:57:32.114Z,17.20
2018-07-28T04:58:40.375Z,17.31
2018-07-28T04:59:48.838Z,17.42
2018-07-28T05:00:57.077Z,17.41
2018-07-28T05:02:05.258Z,17.38
2018-07-28T05:03:12.652Z,17.53
2018-07-28T05:04:20.793Z,17.47
2018-07-28T05:05:28.830Z,17.60
2018-07-28T05:06:36.860Z,17.72
2018-07-28T05:07:45.136Z,17.86
2018-07-28T05:08:53.174Z,17.87
2018-07-28T05:10:01.059Z,17.95
2018-07-28T05:11:09.339Z,18.02
2018-07-28T05:12:17.320Z,18.03
2018-07-28T05:13:25.232Z,18.13
2018-07-28T05:14:33.370Z,18.28
2018-07-28T05:15:41.390Z,18.74
2018-07-28T05:16:50.241Z,18.97
2018-07-28T05:17:58.005Z,19.19
2018-07-28T05:19:05.679Z,19.32
2018-07-28T05:20:15.429Z,19.34
2018-07-28T05:21:21.794Z,19.26
2018-07-28T05:22:29.969Z,19.23
2018-07-28T05:23:37.885Z,19.11
2018-07-28T05:24:46.262Z,19.15
2018-07-28T05:25:54.030Z,19.09
2018-07-28T05:27:02.080Z,19.15
2018-07-28T05:28:13.816Z,19.05
2018-07-28T05:29:18.239Z,19.05
2018-07-28T05:30:26.702Z,19.05
2018-07-28T05:31:34.627Z,19.01
2018-07-28T05:32:42.464Z,18.96
2018-07-28T05:33:50.859Z,19.17
2018-07-28T05:34:59.357Z,19.12
2018-07-28T05:36:06.769Z,19.20
2018-07-28T05:37:15.043Z,19.42
2018-07-28T05:38:22.781Z,19.39
2018-07-28T05:39:35.498Z,19.42
2018-07-28T05:40:39.207Z,19.49
2018-07-28T05:41:47.750Z,19.57
2018-07-28T05:42:55.296Z,19.48
2018-07-28T05:44:03.354Z,19.60
2018-07-28T05:45:11.259Z,19.70
2018-07-28T05:46:19.670Z,19.74
2018-07-28T05:47:27.456Z,19.74
2018-07-28T05:48:35.706Z,19.75
2018-07-28T05:49:43.760Z,19.82
2018-07-28T05:50:51.847Z,19.92
2018-07-28T05:52:00.034Z,19.93
2018-07-28T05:53:08.043Z,20.04
2018-07-28T05:54:16.058Z,20.10
2018-07-28T05:55:24.028Z,20.24
2018-07-28T05:56:32.907Z,20.36
2018-07-28T05:57:40.574Z,20.49
2018-07-28T05:58:50.262Z,20.60
2018-07-28T05:59:57.865Z,20.74
2018-07-28T06:01:04.383Z,20.92
2018-07-28T06:02:12.540Z,21.05
2018-07-28T06:03:20.526Z,21.17
2018-07-28T06:04:28.558Z,21.33
2018-07-28T06:05:37.058Z,21.37
2018-07-28T06:06:45.002Z,21.48
2018-07-28T06:07:53.065Z,21.65
2018-07-28T06:09:00.851Z,21.63
2018-07-28T06:10:08.936Z,21.69
2018-07-28T06:11:17.276Z,21.78
2018-07-28T06:12:25.086Z,21.92
2018-07-28T06:13:33.162Z,21.89
2018-07-28T06:14:41.497Z,22.08
2018-07-28T06:15:49.277Z,22.22
2018-07-28T06:16:58.132Z,22.18
2018-07-28T06:18:05.569Z,22.18
2018-07-28T06:19:13.768Z,22.26
2018-07-28T06:20:21.990Z,22.37
2018-07-28T06:21:30.035Z,22.56
2018-07-28T06:22:37.714Z,22.55
2018-07-28T06:23:45.806Z,22.51
2018-07-28T06:24:53.858Z,22.58
2018-07-28T06:26:02.066Z,22.62
2018-07-28T06:27:09.993Z,22.62
2018-07-28T06:28:18.092Z,22.70
2018-07-28T06:29:26.537Z,22.76
2018-07-28T06:30:34.540Z,22.77
2018-07-28T06:31:42.422Z,22.78
2018-07-28T06:32:50.377Z,22.77
2018-07-28T06:33:58.456Z,22.74
2018-07-28T06:35:06.532Z,22.78
2018-07-28T06:36:14.596Z,22.73
2018-07-28T06:37:22.750Z,22.84
2018-07-28T06:38:32.159Z,22.81
2018-07-28T06:39:39.407Z,22.88
2018-07-28T06:40:47.738Z,22.93
2018-07-28T06:41:55.168Z,22.93
2018-07-28T06:43:04.272Z,22.95
2018-07-28T06:44:11.510Z,22.95
2018-07-28T06:45:19.613Z,22.91
2018-07-28T06:46:31.471Z,22.96
2018-07-28T06:47:39.542Z,22.98
2018-07-28T07:10:25.201Z,21.68
2018-07-28T07:11:32.961Z,21.69
2018-07-28T07:12:41.039Z,21.65
2018-07-28T07:13:49.653Z,21.62
2018-07-28T07:14:57.286Z,21.48
2018-07-28T07:16:05.493Z,21.33
2018-07-28T07:17:13.331Z,21.30
2018-07-28T07:18:21.649Z,21.37
2018-07-28T07:19:30.221Z,21.32
2018-07-28T07:20:38.141Z,21.25
2018-07-28T07:21:46.072Z,21.19
2018-07-28T07:22:54.337Z,21.22
2018-07-28T07:24:01.935Z,21.14
2018-07-28T07:25:10.863Z,21.07
2018-07-28T07:26:18.061Z,20.92
2018-07-28T07:27:28.059Z,20.83
2018-07-28T07:28:34.232Z,20.86
2018-07-28T07:29:44.294Z,20.64
2018-07-28T07:30:50.651Z,20.58
2018-07-28T07:31:58.447Z,20.56
2018-07-28T07:33:06.802Z,20.53
2018-07-28T07:34:17.116Z,20.49
2018-07-28T07:35:22.630Z,20.49
2018-07-28T07:36:32.941Z,20.36
2018-07-28T07:37:38.789Z,20.34
2018-07-28T07:38:46.871Z,20.36
2018-07-28T07:39:55.203Z,20.22
2018-07-28T07:41:03.215Z,20.18
2018-07-28T07:42:11.341Z,20.17
2018-07-28T07:43:20.788Z,20.14
2018-07-28T07:44:27.400Z,20.10
2018-07-28T07:45:38.930Z,19.97
2018-07-28T07:46:43.615Z,19.92
2018-07-28T07:47:51.651Z,19.93
2018-07-28T07:48:59.679Z,19.82
2018-07-28T07:50:07.762Z,19.82
2018-07-28T07:51:15.797Z,19.77
2018-07-28T07:52:23.904Z,19.71
2018-07-28T07:53:31.943Z,19.66
2018-07-28T07:54:40.045Z,19.71
2018-07-28T07:55:48.090Z,19.71
2018-07-28T07:56:56.341Z,19.71
2018-07-28T07:58:04.454Z,19.59
2018-07-28T07:59:12.506Z,19.66
2018-07-28T08:00:20.568Z,19.64
2018-07-28T08:01:28.714Z,19.64
2018-07-28T08:02:38.747Z,19.63
2018-07-28T08:03:44.787Z,19.63
2018-07-28T08:04:52.988Z,19.66
2018-07-28T08:06:00.929Z,19.70
2018-07-28T08:07:08.956Z,19.64
2018-07-28T08:08:20.496Z,19.57
2018-07-28T08:09:25.342Z,19.52
2018-07-28T08:10:33.760Z,19.59
2018-07-28T08:11:41.477Z,19.62
2018-07-28T08:12:49.662Z,19.63
2018-07-28T08:13:57.869Z,19.67
2018-07-28T08:15:06.764Z,19.71
2018-07-28T08:16:14.095Z,19.71
2018-07-28T08:17:21.829Z,19.62
2018-07-28T08:18:29.868Z,19.66
2018-07-28T08:19:37.989Z,19.70
2018-07-28T08:20:45.997Z,19.70
2018-07-28T08:21:54.209Z,19.64
2018-07-28T08:23:02.144Z,19.70
2018-07-28T08:24:10.267Z,19.66
2018-07-28T08:25:18.299Z,19.74
2018-07-28T08:26:26.398Z,19.75
2018-07-28T08:27:34.435Z,19.84
2018-07-28T08:28:42.522Z,19.96
2018-07-28T08:29:50.570Z,20.03
2018-07-28T08:30:58.631Z,20.08
2018-07-28T08:32:07.951Z,20.14
2018-07-28T08:33:15.864Z,20.17
2018-07-28T08:34:23.843Z,20.17
2018-07-28T08:35:32.195Z,20.26
2018-07-28T08:36:40.031Z,20.37
2018-07-28T08:37:48.079Z,20.48
2018-07-28T08:38:56.150Z,20.46
2018-07-28T08:40:04.305Z,20.44
2018-07-28T08:41:12.370Z,20.50
2018-07-28T08:42:20.357Z,20.48
2018-07-28T08:43:28.421Z,20.55
2018-07-28T08:44:36.511Z,20.48
2018-07-28T08:45:44.861Z,20.60
2018-07-28T08:46:52.618Z,20.68
2018-07-28T08:48:01.087Z,20.70
2018-07-28T08:49:13.126Z,20.67
2018-07-28T08:50:16.895Z,20.70
2018-07-28T08:51:28.372Z,20.78
2018-07-28T08:52:33.056Z,20.90
2018-07-28T08:53:41.662Z,21.00
2018-07-28T08:54:49.759Z,21.04
2018-07-28T08:55:58.763Z,21.08
2018-07-28T08:57:06.507Z,21.17
2018-07-28T08:58:16.635Z,21.17
2018-07-28T08:59:21.426Z,21.28
2018-07-28T09:00:29.729Z,21.29
2018-07-28T09:01:37.530Z,21.28
2018-07-28T09:02:47.256Z,21.32
2018-07-28T09:03:53.656Z,21.23
2018-07-28T09:05:01.751Z,21.26
2018-07-28T09:06:09.800Z,21.10
2018-07-28T09:07:17.898Z,21.05
2018-07-28T09:08:25.942Z,21.03
2018-07-28T09:09:34.048Z,21.04
2018-07-28T09:10:42.336Z,21.05
2018-07-28T09:11:50.392Z,21.13
2018-07-28T09:12:58.438Z,21.20
2018-07-28T09:14:06.528Z,21.26
2018-07-28T09:15:14.553Z,21.35
2018-07-28T09:16:22.726Z,21.35
2018-07-28T09:17:30.724Z,21.53
2018-07-28T09:18:38.764Z,21.56
2018-07-28T09:19:47.264Z,21.66
2018-07-28T09:20:55.709Z,21.70
2018-07-28T09:22:03.196Z,21.69
2018-07-28T09:23:11.283Z,21.75
2018-07-28T09:24:19.336Z,21.81
2018-07-28T09:25:27.416Z,21.85
2018-07-28T09:26:35.477Z,21.94
2018-07-28T09:27:45.025Z,22.30
2018-07-28T09:28:51.617Z,22.52
2018-07-28T09:30:01.976Z,22.89
2018-07-28T09:31:07.762Z,23.10
2018-07-28T09:32:15.998Z,23.42
2018-07-28T09:33:23.920Z,23.62
2018-07-28T09:34:31.994Z,23.71
2018-07-28T09:35:40.065Z,23.82
2018-07-28T09:36:48.169Z,23.91
2018-07-28T09:37:56.200Z,23.92
2018-07-28T09:39:04.274Z,23.95
2018-07-28T09:40:12.359Z,23.86
2018-07-28T09:41:20.456Z,23.91
2018-07-28T09:42:28.770Z,23.92
2018-07-28T09:43:36.759Z,24.10
2018-07-28T09:44:45.844Z,24.29
2018-07-28T09:45:54.374Z,24.55
2018-07-28T09:47:01.003Z,24.69
2018-07-28T09:48:10.416Z,24.82
2018-07-28T09:49:17.229Z,24.93
2018-07-28T09:50:28.640Z,24.97
2018-07-28T09:51:33.485Z,24.96
2018-07-28T09:52:41.547Z,24.93
2018-07-28T09:53:49.648Z,24.74
2018-07-28T09:54:59.704Z,24.63
2018-07-28T09:56:05.807Z,24.59
2018-07-28T09:57:13.832Z,24.61
2018-07-28T09:58:21.975Z,24.18
2018-07-28T09:59:32.078Z,24.11
2018-07-28T10:00:38.250Z,24.01
2018-07-28T10:01:50.016Z,24.06
2018-07-28T10:02:54.988Z,24.16
2018-07-28T10:04:04.182Z,24.25
2018-07-28T10:05:10.765Z,24.14
2018-07-28T10:06:18.864Z,24.09
2018-07-28T10:07:26.936Z,23.95
2018-07-28T10:08:35.019Z,24.13
2018-07-28T10:09:43.053Z,24.03
2018-07-28T10:10:51.269Z,24.04
2018-07-28T10:11:59.217Z,23.84
2018-07-28T10:13:07.316Z,23.82
2018-07-28T10:14:15.335Z,23.86
2018-07-28T10:15:23.426Z,23.81
2018-07-28T10:16:31.768Z,23.79
2018-07-28T10:17:39.590Z,23.73
2018-07-28T10:18:47.668Z,23.89
2018-07-28T10:19:55.728Z,24.04
2018-07-28T10:21:04.061Z,24.14
2018-07-28T10:22:12.080Z,24.31
2018-07-28T10:23:20.143Z,24.50
2018-07-28T10:24:28.292Z,24.50
2018-07-28T10:25:36.327Z,24.58
2018-07-28T10:26:44.454Z,24.58
2018-07-28T10:27:52.443Z,24.84
2018-07-28T10:29:00.489Z,24.86
2018-07-28T10:30:08.624Z,24.89
2018-07-28T10:31:16.640Z,24.89
2018-07-28T10:32:27.402Z,24.94
2018-07-28T10:33:32.822Z,25.07
2018-07-28T10:34:44.334Z,24.93
2018-07-28T10:35:48.948Z,24.88
2018-07-28T10:36:57.083Z,24.89
2018-07-28T10:38:05.083Z,24.97
2018-07-28T10:39:13.187Z,24.84
2018-07-28T10:40:21.270Z,24.89
2018-07-28T10:41:29.350Z,24.86
2018-07-28T10:42:37.423Z,24.96
2018-07-28T10:43:48.887Z,24.86
2018-07-28T10:44:53.530Z,24.97
2018-07-28T10:46:01.792Z,25.06
2018-07-28T10:47:09.681Z,25.09
2018-07-28T10:48:17.782Z,25.11
2018-07-28T10:49:25.825Z,25.19
2018-07-28T10:50:34.267Z,25.19
2018-07-28T10:51:41.980Z,25.16
2018-07-28T10:52:50.111Z,25.14
2018-07-28T10:53:58.145Z,25.16
2018-07-28T10:55:06.265Z,25.15
2018-07-28T10:56:14.719Z,25.33
2018-07-28T10:57:22.393Z,25.04
2018-07-28T10:58:30.656Z,24.86
2018-07-28T10:59:42.959Z,25.04
2018-07-28T11:00:46.798Z,25.18
2018-07-28T11:01:57.809Z,25.44
2018-07-28T11:03:02.710Z,25.68
2018-07-28T11:04:12.473Z,25.88
2018-07-28T11:05:19.068Z,25.80
2018-07-28T11:06:27.141Z,25.85
2018-07-28T11:07:35.218Z,25.88
2018-07-28T11:08:43.289Z,25.81
2018-07-28T11:09:51.353Z,25.81
2018-07-28T11:10:59.436Z,25.70
2018-07-28T11:12:07.525Z,25.85
2018-07-28T11:13:15.590Z,25.78
2018-07-28T11:14:23.664Z,25.56
2018-07-28T11:15:31.858Z,25.48
2018-07-28T11:16:39.809Z,25.39
2018-07-28T11:17:47.882Z,25.31
2018-07-28T11:18:56.262Z,25.22
2018-07-28T11:20:05.050Z,25.37
2018-07-28T11:21:12.080Z,25.29
2018-07-28T11:22:20.163Z,25.24
2018-07-28T11:23:28.254Z,25.26
2018-07-28T11:24:36.308Z,25.09
2018-07-28T11:25:44.370Z,25.11
2018-07-28T11:26:52.486Z,25.07
2018-07-28T11:28:00.534Z,25.14
2018-07-28T11:29:08.622Z,25.14
2018-07-28T11:30:17.643Z,25.19
2018-07-28T11:31:24.754Z,25.15
2018-07-28T11:32:33.819Z,25.31
2018-07-28T11:33:40.894Z,25.36
2018-07-28T11:34:50.907Z,25.39
2018-07-28T11:35:57.048Z,25.46
2018-07-28T11:37:05.127Z,25.48
2018-07-28T11:38:13.211Z,25.40
2018-07-28T11:39:24.679Z,25.49
2018-07-28T11:40:29.360Z,25.54
2018-07-28T11:41:37.431Z,25.58
2018-07-28T11:42:45.472Z,25.55
2018-07-28T11:43:53.850Z,25.58
2018-07-28T11:45:01.643Z,25.44
2018-07-28T11:46:09.710Z,25.56
2018-07-28T11:47:17.794Z,25.59
2018-07-28T11:48:26.125Z,25.58
2018-07-28T11:49:34.150Z,25.59
2018-07-28T11:50:42.224Z,25.55
2018-07-28T11:51:50.268Z,25.66
2018-07-28T11:52:58.451Z,25.58
2018-07-28T11:54:06.435Z,25.58
2018-07-28T11:55:14.483Z,25.62
2018-07-28T11:56:22.583Z,25.68
2018-07-28T11:57:30.642Z,25.67
2018-07-28T11:58:38.736Z,25.85
2018-07-28T11:59:46.805Z,25.93
2018-07-28T12:00:55.056Z,25.83
2018-07-28T12:02:02.962Z,25.88
2018-07-28T12:03:11.016Z,25.80
2018-07-28T12:04:19.095Z,25.74
2018-07-28T12:05:27.185Z,25.85
2018-07-28T12:06:38.762Z,25.77
2018-07-28T12:07:43.319Z,25.70
2018-07-28T12:08:51.645Z,25.89
2018-07-28T12:09:59.464Z,25.91
2018-07-28T12:11:07.563Z,25.99
2018-07-28T12:12:15.599Z,25.95
2018-07-28T12:13:23.709Z,26.03
2018-07-28T12:14:31.760Z,26.03
2018-07-28T12:15:39.853Z,26.22
2018-07-28T12:16:47.936Z,26.15
2018-07-28T12:17:56.004Z,26.16
2018-07-28T12:19:04.060Z,26.11
2018-07-28T12:20:12.143Z,26.23
2018-07-28T12:21:20.228Z,26.27
2018-07-28T12:22:28.289Z,26.34
2018-07-28T12:23:36.357Z,26.45
2018-07-28T12:24:44.451Z,26.49
2018-07-28T12:25:53.957Z,26.41
2018-07-28T12:27:00.579Z,26.51
2018-07-28T12:28:10.300Z,26.39
2018-07-28T12:29:16.725Z,26.29
2018-07-28T12:30:24.835Z,26.19
2018-07-28T12:31:32.877Z,26.18
2018-07-28T12:32:40.985Z,25.98
2018-07-28T12:33:49.039Z,25.91
2018-07-28T12:34:57.234Z,25.81
2018-07-28T12:36:05.184Z,25.80
2018-07-28T12:37:13.285Z,25.74
2018-07-28T12:38:21.348Z,25.71
2018-07-28T12:39:29.405Z,25.58
2018-07-28T12:40:37.500Z,25.52
2018-07-28T12:41:45.591Z,25.41
2018-07-28T12:42:53.628Z,25.49
2018-07-28T12:44:01.701Z,25.39
2018-07-28T12:45:09.798Z,25.44
2018-07-28T12:46:17.887Z,25.41
2018-07-28T12:47:25.927Z,25.46
2018-07-28T12:48:33.985Z,25.51
2018-07-28T12:49:42.065Z,25.44
2018-07-28T12:50:50.160Z,25.58
2018-07-28T12:51:58.283Z,25.61
2018-07-28T12:53:06.306Z,25.59
2018-07-28T12:54:14.371Z,25.62
2018-07-28T12:55:22.653Z,25.58
2018-07-28T12:56:34.206Z,25.74
2018-07-28T12:57:38.622Z,25.73
2018-07-28T12:58:46.699Z,25.73
2018-07-28T12:59:54.767Z,25.81
2018-07-28T13:01:02.853Z,25.85
2018-07-28T13:02:10.911Z,25.81
2018-07-28T13:03:19.006Z,26.01
2018-07-28T13:04:27.067Z,25.99
2018-07-28T13:05:35.141Z,26.18
2018-07-28T13:06:43.197Z,26.15
2018-07-28T13:07:51.277Z,26.18
2018-07-28T13:08:59.340Z,26.18
2018-07-28T13:10:07.438Z,26.19
2018-07-28T13:11:15.483Z,26.06
2018-07-28T13:12:23.890Z,25.99
2018-07-28T13:13:31.662Z,25.96
2018-07-28T13:14:39.744Z,25.95
2018-07-28T13:15:49.528Z,25.95
2018-07-28T13:16:55.856Z,25.95
2018-07-28T13:18:05.377Z,25.80
2018-07-28T13:19:12.032Z,25.73
2018-07-28T13:20:20.128Z,25.73
2018-07-28T13:21:28.182Z,25.77
2018-07-28T13:22:36.348Z,25.78
2018-07-28T13:23:44.346Z,25.81
2018-07-28T13:24:52.404Z,25.91
2018-07-28T13:26:00.464Z,25.77
2018-07-28T13:27:08.572Z,25.86
2018-07-28T13:28:16.628Z,25.76
2018-07-28T13:29:24.690Z,25.77
2018-07-28T13:30:32.777Z,25.74
2018-07-28T13:31:40.832Z,25.70
2018-07-28T13:32:48.908Z,25.67
2018-07-28T13:33:56.986Z,25.56
2018-07-28T13:35:05.066Z,25.73
2018-07-28T13:36:13.143Z,25.63
2018-07-28T13:37:21.291Z,25.48
2018-07-28T13:38:29.347Z,25.34
2018-07-28T13:39:37.560Z,25.37
2018-07-28T13:40:45.632Z,25.21
2018-07-28T13:41:53.682Z,25.19
2018-07-28T13:43:01.834Z,25.12
2018-07-28T13:44:09.858Z,25.12
2018-07-28T13:45:17.959Z,25.09
2018-07-28T13:46:26.211Z,25.12
2018-07-28T13:47:34.276Z,25.18
2018-07-28T13:48:42.448Z,25.26
2018-07-28T13:49:50.435Z,25.30
2018-07-28T13:50:58.504Z,25.22
2018-07-28T13:52:06.592Z,25.18
2018-07-28T13:53:14.697Z,25.24
2018-07-28T13:54:22.748Z,25.19
2018-07-28T13:55:30.810Z,25.18
2018-07-28T13:56:38.878Z,25.11
2018-07-28T13:57:46.963Z,25.09
2018-07-28T13:58:55.016Z,25.09
2018-07-28T14:00:03.144Z,24.92
2018-07-28T14:01:11.181Z,24.96
2018-07-28T14:02:19.292Z,25.06
2018-07-28T14:03:27.335Z,24.97
2018-07-28T14:04:35.393Z,25.01
2018-07-28T14:05:43.453Z,24.89
2018-07-28T14:06:51.546Z,24.96
2018-07-28T14:07:59.632Z,24.92
2018-07-28T14:09:07.710Z,24.81
2018-07-28T14:10:16.045Z,24.85
2018-07-28T14:11:23.840Z,24.88
2018-07-28T14:12:31.917Z,24.86
2018-07-28T14:13:39.990Z,24.85
2018-07-28T14:14:48.074Z,24.86
2018-07-28T14:15:56.122Z,24.79
2018-07-28T14:17:04.225Z,24.78
2018-07-28T14:18:12.364Z,24.75
2018-07-28T14:19:23.746Z,24.82
2018-07-28T14:20:28.422Z,24.75
2018-07-28T14:21:36.528Z,24.84
2018-07-28T14:22:44.618Z,24.85
2018-07-28T14:23:52.760Z,24.77
2018-07-28T14:25:01.028Z,24.75
2018-07-28T14:26:08.813Z,24.61
2018-07-28T14:27:16.885Z,24.55
2018-07-28T14:28:24.958Z,24.51
2018-07-28T14:29:33.048Z,24.56
2018-07-28T14:30:41.081Z,24.56
2018-07-28T14:31:49.163Z,24.55
2018-07-28T14:32:57.246Z,24.41
2018-07-28T14:34:05.311Z,24.37
2018-07-28T14:35:13.386Z,24.36
2018-07-28T14:36:21.952Z,24.38
2018-07-28T14:37:29.870Z,24.36
2018-07-28T14:38:37.826Z,24.38
2018-07-28T14:39:45.862Z,24.36
2018-07-28T14:40:54.158Z,24.43
2018-07-28T14:42:02.234Z,24.36
2018-07-28T14:43:10.290Z,24.47
2018-07-28T14:44:18.353Z,24.46
2018-07-28T14:45:26.452Z,24.50
2018-07-28T14:46:34.717Z,24.48
2018-07-28T14:47:46.202Z,24.55
2018-07-28T14:48:51.110Z,24.58
2018-07-28T14:49:58.961Z,24.58
2018-07-28T14:51:06.996Z,24.59
2018-07-28T14:52:15.104Z,24.59
2018-07-28T14:53:23.168Z,24.62
2018-07-28T14:54:31.244Z,24.75
2018-07-28T14:55:40.599Z,24.84
2018-07-28T14:56:47.405Z,24.82
2018-07-28T14:57:55.437Z,25.00